Unser Platzwetter:

(um das Bild zu aktualisieren oder bei unvollständig geladenem Bild den Reload-Button des Browsers drücken)

[Quelle: ADDS]
METAR
ETNN 031420Z 28004KT 9999 FEW290 16/03 Q1026 BLU+BLU+ =
ETNN 031400Z 0315/0324 28005KT 9999 NSW SCT120 BY ETGL
TAF
ETNN 031400Z 0315/0324 28005KT 9999 NSW SCT120 BY ETGL =
SR / SS: 06:12 / 17:18 UTC (Vettweiss-Soller 2021-03-03)

Aktuelle Windrichtung in Relation zu unserer Bahn:

 

Aktuelle Dichtehöhe bei uns am Platz: 316 ft.

PPR beachten

50 44 51 N / 06 34 01 E
525 ft
14/32 Gras 360 m
136.090 MHz
02424/901444

Kontakt:

LSG Gertrudenhof e.V.
c/o Franz-Josef Schmidt
An der Gärtnerei 13
52388 Nörvenich
02426/9593651
0175/2660491

in Lokalzeit:
07:11
18:19